createdAt,value
2023-05-21T00:00:11.315Z,47.72
2023-05-21T00:02:40.171Z,47.61
2023-05-21T00:05:14.301Z,47.95
2023-05-21T00:07:43.192Z,48.13
2023-05-21T00:10:13.304Z,48.14
2023-05-21T00:12:42.659Z,47.92
2023-05-21T00:15:12.244Z,48.27
2023-05-21T00:17:41.095Z,47.88
2023-05-21T00:20:10.263Z,48.22
2023-05-21T00:22:38.607Z,48.07
2023-05-21T00:25:08.166Z,48.57
2023-05-21T00:27:38.000Z,48.33
2023-05-21T00:30:10.593Z,48.54
2023-05-21T00:32:39.149Z,48.55
2023-05-21T00:35:09.422Z,48.37
2023-05-21T00:37:38.182Z,48.68
2023-05-21T00:40:09.298Z,48.20
2023-05-21T00:42:40.716Z,48.11
2023-05-21T00:45:10.523Z,48.43
2023-05-21T00:47:39.324Z,48.35
2023-05-21T00:50:09.454Z,48.19
2023-05-21T00:52:42.283Z,48.21
2023-05-21T00:55:11.904Z,48.24
2023-05-21T00:57:42.668Z,48.59
2023-05-21T01:00:13.118Z,48.35
2023-05-21T01:02:42.191Z,48.45
2023-05-21T01:05:11.903Z,48.84
2023-05-21T01:07:42.599Z,48.67
2023-05-21T01:10:13.790Z,48.72
2023-05-21T01:12:46.359Z,48.58
2023-05-21T01:15:15.264Z,48.82
2023-05-21T01:17:46.146Z,48.94
2023-05-21T01:20:18.208Z,49.13
2023-05-21T01:22:54.313Z,49.09
2023-05-21T01:25:23.366Z,48.99
2023-05-21T01:27:52.236Z,49.20
2023-05-21T01:30:23.447Z,49.11
2023-05-21T01:33:01.631Z,49.06
2023-05-21T01:35:36.359Z,49.47
2023-05-21T01:38:15.975Z,49.13
2023-05-21T01:40:54.344Z,49.57
2023-05-21T01:43:24.705Z,49.54
2023-05-21T01:45:57.998Z,49.42
2023-05-21T01:48:28.766Z,49.79
2023-05-21T01:51:00.260Z,49.79
2023-05-21T01:53:30.036Z,49.80
2023-05-21T01:55:59.367Z,50.07
2023-05-21T01:58:27.805Z,50.10
2023-05-21T02:00:57.045Z,50.34
2023-05-21T02:03:28.100Z,50.39
2023-05-21T02:05:56.696Z,50.06
2023-05-21T02:08:25.689Z,50.45
2023-05-21T02:10:55.654Z,50.38
2023-05-21T02:13:26.593Z,50.25
2023-05-21T02:15:56.299Z,50.35
2023-05-21T02:18:26.445Z,50.10
2023-05-21T02:20:54.869Z,50.27
2023-05-21T02:23:23.375Z,50.48
2023-05-21T02:25:51.934Z,50.58
2023-05-21T02:28:22.291Z,50.43
2023-05-21T02:30:50.850Z,50.58
2023-05-21T02:33:19.887Z,50.59
2023-05-21T02:35:48.489Z,50.86
2023-05-21T02:38:19.531Z,50.85
2023-05-21T02:40:47.921Z,50.89
2023-05-21T02:43:16.535Z,50.99
2023-05-21T02:45:46.406Z,51.10
2023-05-21T02:48:14.930Z,50.96
2023-05-21T02:50:43.368Z,50.98
2023-05-21T02:53:11.740Z,51.07
2023-05-21T02:55:40.160Z,51.29
2023-05-21T02:58:08.572Z,50.96
2023-05-21T03:00:36.952Z,50.97
2023-05-21T03:03:06.825Z,51.18
2023-05-21T03:05:35.507Z,51.23
2023-05-21T03:08:04.075Z,51.03
2023-05-21T03:10:32.421Z,51.04
2023-05-21T03:13:01.351Z,51.21
2023-05-21T03:15:33.393Z,51.17
2023-05-21T03:18:01.964Z,51.27
2023-05-21T03:20:32.720Z,51.50
2023-05-21T03:23:04.277Z,51.35
2023-05-21T03:25:32.662Z,51.43
2023-05-21T03:28:01.060Z,51.35
2023-05-21T03:30:29.615Z,51.37
2023-05-21T03:32:58.050Z,51.39
2023-05-21T03:35:26.522Z,51.45
2023-05-21T03:37:56.287Z,51.63
2023-05-21T03:40:24.811Z,51.51
2023-05-21T03:42:53.268Z,51.47
2023-05-21T03:45:21.875Z,51.36
2023-05-21T03:47:50.768Z,51.56
2023-05-21T03:50:19.329Z,51.38
2023-05-21T03:52:47.730Z,51.51
2023-05-21T03:55:17.612Z,51.64
2023-05-21T03:57:45.954Z,51.30
2023-05-21T04:00:15.240Z,51.27
2023-05-21T04:02:43.714Z,51.48
2023-05-21T04:05:12.150Z,51.17
2023-05-21T04:07:40.630Z,51.37
2023-05-21T04:10:10.172Z,51.45
2023-05-21T04:12:39.985Z,51.40
2023-05-21T04:15:09.955Z,51.15
2023-05-21T04:17:38.632Z,51.35
2023-05-21T04:20:09.417Z,51.33
2023-05-21T04:22:37.858Z,51.03
2023-05-21T04:25:07.100Z,51.01
2023-05-21T04:27:35.644Z,51.10
2023-05-21T04:30:06.891Z,50.79
2023-05-21T04:32:35.322Z,50.99
2023-05-21T04:35:04.353Z,50.73
2023-05-21T04:37:35.186Z,50.40
2023-05-21T04:40:03.762Z,50.73
2023-05-21T04:42:33.127Z,50.60
2023-05-21T04:45:01.719Z,50.17
2023-05-21T04:47:35.442Z,50.15
2023-05-21T04:50:04.549Z,50.03
2023-05-21T04:52:34.830Z,49.88
2023-05-21T04:55:03.209Z,49.69
2023-05-21T04:57:31.607Z,49.16
2023-05-21T04:59:59.959Z,49.19
2023-05-21T05:02:28.434Z,48.25
2023-05-21T05:04:59.922Z,47.70
2023-05-21T05:07:28.334Z,47.10
2023-05-21T05:09:56.730Z,46.44
2023-05-21T05:12:25.069Z,45.72
2023-05-21T05:14:53.509Z,45.20
2023-05-21T05:17:21.962Z,44.97
2023-05-21T05:19:50.344Z,44.25
2023-05-21T05:22:20.167Z,44.15
2023-05-21T05:24:48.598Z,43.94
2023-05-21T05:27:17.944Z,44.20
2023-05-21T05:29:46.378Z,44.05
2023-05-21T05:32:14.846Z,44.09
2023-05-21T05:34:43.749Z,43.87
2023-05-21T05:37:12.132Z,43.85
2023-05-21T05:39:41.854Z,43.80
2023-05-21T05:42:10.393Z,43.83
2023-05-21T05:44:38.799Z,43.30
2023-05-21T05:47:10.828Z,43.52
2023-05-21T05:49:39.209Z,43.28
2023-05-21T05:52:08.423Z,43.20
2023-05-21T05:54:36.770Z,43.13
2023-05-21T05:57:07.170Z,42.86
2023-05-21T05:59:35.521Z,42.97
2023-05-21T06:02:03.955Z,42.53
2023-05-21T06:04:32.323Z,42.44
2023-05-21T06:07:01.045Z,42.18
2023-05-21T06:09:29.382Z,42.26
2023-05-21T06:11:57.931Z,41.92
2023-05-21T06:14:27.844Z,41.74
2023-05-21T06:16:56.192Z,41.79
2023-05-21T06:19:24.750Z,41.76
2023-05-21T06:21:53.127Z,41.26
2023-05-21T06:24:21.852Z,41.13
2023-05-21T06:26:50.249Z,40.87
2023-05-21T06:29:18.699Z,40.40
2023-05-21T06:31:48.711Z,40.44
2023-05-21T06:34:17.129Z,40.24
2023-05-21T06:36:45.892Z,39.88
2023-05-21T06:39:14.215Z,39.56
2023-05-21T06:41:42.641Z,39.77
2023-05-21T06:44:11.103Z,39.36
2023-05-21T06:46:39.786Z,39.18
2023-05-21T06:49:10.027Z,38.79
2023-05-21T06:51:38.882Z,38.90
2023-05-21T06:54:07.324Z,38.88
2023-05-21T06:56:35.779Z,38.54
2023-05-21T06:59:04.347Z,38.90
2023-05-21T07:01:34.462Z,38.75
2023-05-21T07:04:02.923Z,38.47
2023-05-21T07:06:33.182Z,38.45
2023-05-21T07:09:01.579Z,38.28
2023-05-21T07:11:29.998Z,37.50
2023-05-21T07:14:01.796Z,37.76
2023-05-21T07:16:30.406Z,37.15
2023-05-21T07:18:58.837Z,36.78
2023-05-21T07:21:27.209Z,37.06
2023-05-21T07:23:57.039Z,36.85
2023-05-21T07:26:26.362Z,36.45
2023-05-21T07:28:54.750Z,36.34
2023-05-21T07:31:23.145Z,36.23
2023-05-21T07:33:51.569Z,36.54
2023-05-21T07:36:19.900Z,36.39
2023-05-21T07:38:48.431Z,36.37
2023-05-21T07:41:18.815Z,35.52
2023-05-21T07:43:47.433Z,35.66
2023-05-21T07:46:15.858Z,35.68
2023-05-21T07:48:44.731Z,35.46
2023-05-21T07:51:13.962Z,35.31
2023-05-21T07:53:42.378Z,35.35
2023-05-21T07:56:10.854Z,35.13
2023-05-21T07:58:40.739Z,35.02
2023-05-21T08:01:09.199Z,35.17
2023-05-21T08:03:37.774Z,35.34
2023-05-21T08:06:06.883Z,34.88
2023-05-21T08:08:35.276Z,35.12
2023-05-21T08:11:03.624Z,35.35
2023-05-21T08:13:32.032Z,35.29
2023-05-21T08:16:01.915Z,34.91
2023-05-21T08:18:30.346Z,35.07
2023-05-21T08:20:58.887Z,34.74
2023-05-21T08:23:27.765Z,34.51
2023-05-21T08:25:56.140Z,34.29
2023-05-21T08:28:24.857Z,34.54
2023-05-21T08:30:53.300Z,34.18
2023-05-21T08:33:23.170Z,34.24
2023-05-21T08:35:51.623Z,34.01
2023-05-21T08:38:20.046Z,34.35
2023-05-21T08:40:48.849Z,34.25
2023-05-21T08:43:18.297Z,33.77
2023-05-21T08:45:54.598Z,33.66
2023-05-21T08:48:25.227Z,33.55
2023-05-21T08:50:54.889Z,33.46
2023-05-21T08:53:28.724Z,33.47
2023-05-21T08:55:58.339Z,33.46
2023-05-21T08:58:26.778Z,33.33
2023-05-21T09:00:57.126Z,32.95
2023-05-21T09:03:27.236Z,32.88
2023-05-21T09:05:56.292Z,32.93
2023-05-21T09:08:31.218Z,33.02
2023-05-21T09:10:59.793Z,32.88
2023-05-21T09:13:30.101Z,32.85
2023-05-21T09:15:58.637Z,32.64
2023-05-21T09:18:28.660Z,32.85
2023-05-21T09:20:57.621Z,32.81
2023-05-21T09:23:29.592Z,32.75
2023-05-21T09:25:58.453Z,32.48
2023-05-21T09:28:26.892Z,32.10
2023-05-21T09:30:55.339Z,31.84
2023-05-21T09:33:30.747Z,31.95
2023-05-21T09:35:59.190Z,31.82
2023-05-21T09:38:27.822Z,31.92
2023-05-21T09:40:57.658Z,31.89
2023-05-21T09:43:27.139Z,31.88
2023-05-21T09:45:58.959Z,31.64
2023-05-21T09:48:40.770Z,31.76
2023-05-21T09:51:16.181Z,31.73
2023-05-21T09:53:49.661Z,31.53
2023-05-21T09:56:23.503Z,31.56
2023-05-21T09:58:55.617Z,31.35
2023-05-21T10:01:25.474Z,31.32
2023-05-21T10:03:58.854Z,30.95
2023-05-21T10:06:29.632Z,30.91
2023-05-21T10:09:01.615Z,31.02
2023-05-21T10:11:33.241Z,30.95
2023-05-21T10:14:07.017Z,30.48
2023-05-21T10:16:37.495Z,30.83
2023-05-21T10:19:10.990Z,30.76
2023-05-21T10:21:41.008Z,30.47
2023-05-21T10:24:10.718Z,30.39
2023-05-21T10:26:40.848Z,30.25
2023-05-21T10:29:10.193Z,30.35
2023-05-21T10:31:40.873Z,30.27
2023-05-21T10:34:12.736Z,30.42
2023-05-21T10:36:42.378Z,30.00
2023-05-21T10:39:13.808Z,29.89
2023-05-21T10:41:53.982Z,29.72
2023-05-21T10:44:37.901Z,29.77
2023-05-21T10:47:58.564Z,29.85
2023-05-21T10:51:10.882Z,29.71
2023-05-21T10:54:03.521Z,29.17
2023-05-21T10:56:40.743Z,28.46
2023-05-21T10:59:33.164Z,27.38
2023-05-21T11:02:01.992Z,27.37
2023-05-21T11:04:30.816Z,26.17
2023-05-21T11:07:01.730Z,26.20
2023-05-21T11:09:30.106Z,25.28
2023-05-21T11:12:00.235Z,24.86
2023-05-21T11:14:36.728Z,24.85
2023-05-21T11:17:11.186Z,24.18
2023-05-21T11:19:41.733Z,23.73
2023-05-21T11:22:23.600Z,23.37
2023-05-21T11:24:56.334Z,22.83
2023-05-21T11:27:36.595Z,22.82
2023-05-21T11:30:08.190Z,22.08
2023-05-21T11:32:40.311Z,21.85
2023-05-21T11:35:10.037Z,21.32
2023-05-21T11:37:41.999Z,21.17
2023-05-21T11:40:27.339Z,21.73
2023-05-21T11:42:57.330Z,20.71
2023-05-21T11:45:30.967Z,20.42
2023-05-21T11:47:59.796Z,19.73
2023-05-21T11:50:30.864Z,18.86
2023-05-21T11:53:01.404Z,18.69
2023-05-21T11:55:29.874Z,17.97
2023-05-21T11:57:59.549Z,17.48
2023-05-21T12:00:28.004Z,17.39
2023-05-21T12:02:57.179Z,17.26
2023-05-21T12:05:27.213Z,17.25
2023-05-21T12:07:56.696Z,16.89
2023-05-21T12:10:26.647Z,16.86
2023-05-21T12:12:57.303Z,16.21
2023-05-21T12:15:28.180Z,16.17
2023-05-21T12:17:57.998Z,16.51
2023-05-21T12:20:29.152Z,15.58
2023-05-21T12:23:00.611Z,15.36
2023-05-21T12:25:32.150Z,15.41
2023-05-21T12:28:01.440Z,15.16
2023-05-21T12:30:31.136Z,14.68
2023-05-21T12:33:02.353Z,14.50
2023-05-21T12:35:32.823Z,14.10
2023-05-21T12:38:03.525Z,13.71
2023-05-21T12:40:41.093Z,13.74
2023-05-21T12:43:09.790Z,13.41
2023-05-21T12:45:40.771Z,13.03
2023-05-21T12:48:12.152Z,13.21
2023-05-21T12:50:42.283Z,12.96
2023-05-21T12:53:12.635Z,13.07
2023-05-21T12:55:42.475Z,12.90
2023-05-21T12:58:15.084Z,12.56
2023-05-21T13:00:44.125Z,12.08
2023-05-21T13:03:12.581Z,12.07
2023-05-21T13:05:42.503Z,11.87
2023-05-21T13:08:14.154Z,12.11
2023-05-21T13:10:44.138Z,11.68
2023-05-21T13:13:12.600Z,11.24
2023-05-21T13:15:41.122Z,11.28
2023-05-21T13:18:09.886Z,10.90
2023-05-21T13:20:39.134Z,10.75
2023-05-21T13:23:09.818Z,10.69
2023-05-21T13:25:39.788Z,10.65
2023-05-21T13:28:10.509Z,10.77
2023-05-21T13:30:39.269Z,10.78
2023-05-21T13:33:08.278Z,10.38
2023-05-21T13:35:36.825Z,9.66
2023-05-21T13:38:05.276Z,9.59
2023-05-21T13:40:34.698Z,9.38
2023-05-21T13:43:03.930Z,9.18
2023-05-21T13:45:34.796Z,9.07
2023-05-21T13:48:03.212Z,9.49
2023-05-21T13:50:31.749Z,8.87
2023-05-21T13:53:00.356Z,9.33
2023-05-21T13:55:28.755Z,9.27
2023-05-21T13:57:57.104Z,8.56
2023-05-21T14:00:25.548Z,9.27
2023-05-21T14:02:55.372Z,8.92
2023-05-21T14:05:23.826Z,9.02
2023-05-21T14:07:52.170Z,8.74
2023-05-21T14:10:20.770Z,8.82
2023-05-21T14:12:49.191Z,9.12
2023-05-21T14:15:18.002Z,8.72
2023-05-21T14:17:46.533Z,9.33
2023-05-21T14:20:16.439Z,9.04
2023-05-21T14:22:44.801Z,8.51
2023-05-21T14:25:13.300Z,8.43
2023-05-21T14:27:41.682Z,8.91
2023-05-21T14:30:11.537Z,8.64
2023-05-21T14:32:39.989Z,8.71
2023-05-21T14:35:09.324Z,8.49
2023-05-21T14:37:39.186Z,8.19
2023-05-21T14:40:09.668Z,7.93
2023-05-21T14:42:38.183Z,8.06
2023-05-21T14:45:18.817Z,7.88
2023-05-21T14:47:48.940Z,8.03
2023-05-21T14:50:19.151Z,7.92
2023-05-21T14:52:48.931Z,8.03
2023-05-21T14:55:18.547Z,8.60
2023-05-21T14:57:46.983Z,8.75
2023-05-21T15:00:16.257Z,8.14
2023-05-21T15:02:44.888Z,8.04
2023-05-21T15:05:13.511Z,8.10
2023-05-21T15:07:41.904Z,8.51
2023-05-21T15:10:12.514Z,8.30
2023-05-21T15:12:42.160Z,8.24
2023-05-21T15:15:12.349Z,8.17
2023-05-21T15:17:40.921Z,8.16
2023-05-21T15:20:10.753Z,7.82
2023-05-21T15:22:39.209Z,8.31
2023-05-21T15:25:09.812Z,8.06
2023-05-21T15:27:39.720Z,8.41
2023-05-21T15:30:09.547Z,8.55
2023-05-21T15:32:38.019Z,8.31
2023-05-21T15:35:07.510Z,8.55
2023-05-21T15:37:36.031Z,9.21
2023-05-21T15:40:05.865Z,9.83
2023-05-21T15:42:34.252Z,10.75
2023-05-21T15:45:04.256Z,11.08
2023-05-21T15:47:32.596Z,11.59
2023-05-21T15:50:01.269Z,12.19
2023-05-21T15:52:29.666Z,12.81
2023-05-21T15:54:58.074Z,13.46
2023-05-21T15:57:26.508Z,13.70
2023-05-21T15:59:54.959Z,13.60
2023-05-21T16:02:24.750Z,14.78
2023-05-21T16:04:53.210Z,14.70
2023-05-21T16:07:24.230Z,14.80
2023-05-21T16:09:52.571Z,15.32
2023-05-21T16:12:21.062Z,15.98
2023-05-21T16:14:50.961Z,16.28
2023-05-21T16:17:19.812Z,16.52
2023-05-21T16:19:49.786Z,16.71
2023-05-21T16:22:20.328Z,16.96
2023-05-21T16:24:48.816Z,17.30
2023-05-21T16:27:17.308Z,17.30
2023-05-21T16:29:46.344Z,17.69
2023-05-21T16:32:15.128Z,17.62
2023-05-21T16:34:43.608Z,17.93
2023-05-21T16:37:13.387Z,18.45
2023-05-21T16:39:41.751Z,18.26
2023-05-21T16:42:10.177Z,18.85
2023-05-21T16:44:39.365Z,18.72
2023-05-21T16:47:08.456Z,19.35
2023-05-21T16:49:36.868Z,19.53
2023-05-21T16:52:05.452Z,19.43
2023-05-21T16:54:35.288Z,19.88
2023-05-21T16:57:03.691Z,19.96
2023-05-21T16:59:32.129Z,20.34
2023-05-21T17:02:00.676Z,20.50
2023-05-21T17:04:29.681Z,20.43
2023-05-21T17:06:58.211Z,20.35
2023-05-21T17:09:26.569Z,20.92
2023-05-21T17:11:56.349Z,21.03
2023-05-21T17:14:33.845Z,20.72
2023-05-21T17:17:03.513Z,21.03
2023-05-21T17:19:32.248Z,21.47
2023-05-21T17:22:00.935Z,21.27
2023-05-21T17:24:29.382Z,21.45
2023-05-21T17:26:59.186Z,21.35
2023-05-21T17:29:27.620Z,21.73
2023-05-21T17:31:56.377Z,21.58
2023-05-21T17:34:29.510Z,21.67
2023-05-21T17:37:00.366Z,21.52
2023-05-21T17:39:28.778Z,21.95
2023-05-21T17:41:58.825Z,22.12
2023-05-21T17:44:27.288Z,21.90
2023-05-21T17:46:56.474Z,22.37
2023-05-21T17:49:25.274Z,22.45
2023-05-21T17:51:53.968Z,22.42
2023-05-21T17:54:22.453Z,22.81
2023-05-21T17:56:51.000Z,22.72
2023-05-21T17:59:21.326Z,22.84
2023-05-21T18:01:49.820Z,22.72
2023-05-21T18:04:18.470Z,23.27
2023-05-21T18:06:46.934Z,23.15
2023-05-21T18:09:15.607Z,23.18
2023-05-21T18:11:45.246Z,23.33
2023-05-21T18:14:13.967Z,23.54
2023-05-21T18:16:44.197Z,23.61
2023-05-21T18:19:13.304Z,23.67
2023-05-21T18:21:41.860Z,23.95
2023-05-21T18:24:10.389Z,23.95
2023-05-21T18:26:38.804Z,24.33
2023-05-21T18:29:07.214Z,24.40
2023-05-21T18:31:35.753Z,24.47
2023-05-21T18:34:05.633Z,24.46
2023-05-21T18:36:38.857Z,24.73
2023-05-21T18:39:08.621Z,24.96
2023-05-21T18:41:37.720Z,25.12
2023-05-21T18:44:07.180Z,25.39
2023-05-21T18:46:36.542Z,25.20
2023-05-21T18:49:07.183Z,25.42
2023-05-21T18:51:35.593Z,25.54
2023-05-21T18:54:04.076Z,25.78
2023-05-21T18:56:32.563Z,25.86
2023-05-21T18:59:01.259Z,26.02
2023-05-21T19:01:30.322Z,26.40
2023-05-21T19:03:59.047Z,26.35
2023-05-21T19:06:29.177Z,26.74
2023-05-21T19:08:57.992Z,26.44
2023-05-21T19:11:31.137Z,26.84
2023-05-21T19:14:00.938Z,26.97
2023-05-21T19:16:29.531Z,27.06
2023-05-21T19:18:58.277Z,27.53
2023-05-21T19:21:28.462Z,27.43
2023-05-21T19:23:57.036Z,27.31
2023-05-21T19:26:25.939Z,28.16
2023-05-21T19:28:55.514Z,28.34
2023-05-21T19:31:25.396Z,28.52
2023-05-21T19:33:54.078Z,28.96
2023-05-21T19:36:22.753Z,28.71
2023-05-21T19:38:52.710Z,29.51
2023-05-21T19:41:22.793Z,29.44
2023-05-21T19:43:51.604Z,29.80
2023-05-21T19:46:20.633Z,29.71
2023-05-21T19:48:49.661Z,30.14
2023-05-21T19:51:18.349Z,30.11
2023-05-21T19:53:46.776Z,30.41
2023-05-21T19:56:17.099Z,30.36
2023-05-21T19:58:48.072Z,30.47
2023-05-21T20:01:17.423Z,30.89
2023-05-21T20:03:46.268Z,31.41
2023-05-21T20:06:16.982Z,31.55
2023-05-21T20:08:45.487Z,31.52
2023-05-21T20:11:15.371Z,31.38
2023-05-21T20:13:48.545Z,31.57
2023-05-21T20:16:18.439Z,32.07
2023-05-21T20:18:47.382Z,32.39
2023-05-21T20:21:17.580Z,32.47
2023-05-21T20:23:46.199Z,32.29
2023-05-21T20:26:16.969Z,32.84
2023-05-21T20:28:45.786Z,32.66
2023-05-21T20:31:14.423Z,32.74
2023-05-21T20:33:43.179Z,33.15
2023-05-21T20:36:13.328Z,33.47
2023-05-21T20:38:42.236Z,32.84
2023-05-21T20:41:10.771Z,33.37
2023-05-21T20:43:40.674Z,33.30
2023-05-21T20:46:09.168Z,33.47
2023-05-21T20:48:37.861Z,33.54
2023-05-21T20:51:06.913Z,33.88
2023-05-21T20:53:35.550Z,33.71
2023-05-21T20:56:08.182Z,34.00
2023-05-21T20:58:36.798Z,33.91
2023-05-21T21:01:07.513Z,34.11
2023-05-21T21:03:36.942Z,34.11
2023-05-21T21:06:06.506Z,34.39
2023-05-21T21:08:35.263Z,34.55
2023-05-21T21:11:03.638Z,34.78
2023-05-21T21:13:32.107Z,34.96
2023-05-21T21:16:00.662Z,34.66
2023-05-21T21:18:30.493Z,34.95
2023-05-21T21:20:59.227Z,35.34
2023-05-21T21:23:30.297Z,35.51
2023-05-21T21:25:58.667Z,35.48
2023-05-21T21:28:27.086Z,35.67
2023-05-21T21:30:55.475Z,35.57
2023-05-21T21:33:24.479Z,35.65
2023-05-21T21:35:54.269Z,35.83
2023-05-21T21:38:22.808Z,35.83
2023-05-21T21:40:51.350Z,36.16
2023-05-21T21:43:19.762Z,36.13
2023-05-21T21:45:48.152Z,36.15
2023-05-21T21:48:16.906Z,36.40
2023-05-21T21:50:45.589Z,36.55
2023-05-21T21:53:15.321Z,36.64
2023-05-21T21:55:43.778Z,36.58
2023-05-21T21:58:12.622Z,36.80
2023-05-21T22:00:41.261Z,36.79
2023-05-21T22:03:11.161Z,36.90
2023-05-21T22:05:41.278Z,36.92
2023-05-21T22:08:09.796Z,37.05
2023-05-21T22:10:39.740Z,37.50
2023-05-21T22:13:08.462Z,37.59
2023-05-21T22:15:37.129Z,37.68
2023-05-21T22:18:06.034Z,37.86
2023-05-21T22:20:35.194Z,37.91
2023-05-21T22:23:03.630Z,38.11
2023-05-21T22:25:32.132Z,38.11
2023-05-21T22:28:01.896Z,38.26
2023-05-21T22:30:30.343Z,38.43
2023-05-21T22:32:58.950Z,38.51
2023-05-21T22:35:27.329Z,38.40
2023-05-21T22:37:55.682Z,38.46
2023-05-21T22:40:24.113Z,38.42
2023-05-21T22:42:52.569Z,38.66
2023-05-21T22:45:22.786Z,39.14
2023-05-21T22:47:52.579Z,39.01
2023-05-21T22:50:21.096Z,38.95
2023-05-21T22:52:49.529Z,39.20
2023-05-21T22:55:18.294Z,39.42
2023-05-21T22:57:47.011Z,39.40
2023-05-21T23:00:19.115Z,39.38
2023-05-21T23:02:52.146Z,39.39
2023-05-21T23:05:22.508Z,39.58
2023-05-21T23:07:51.113Z,39.68
2023-05-21T23:10:19.948Z,39.73
2023-05-21T23:12:48.436Z,39.65
2023-05-21T23:15:17.155Z,39.62
2023-05-21T23:17:45.871Z,39.78
2023-05-21T23:20:15.898Z,39.94
2023-05-21T23:22:44.315Z,39.87
2023-05-21T23:25:12.723Z,39.96
2023-05-21T23:27:41.159Z,40.15
2023-05-21T23:30:11.929Z,40.16
2023-05-21T23:32:40.500Z,40.40
2023-05-21T23:35:10.557Z,40.57
2023-05-21T23:37:40.384Z,40.70
2023-05-21T23:40:10.568Z,40.87
2023-05-21T23:42:39.083Z,40.79
2023-05-21T23:45:09.056Z,40.92
2023-05-21T23:47:37.496Z,40.97
2023-05-21T23:50:07.549Z,41.18
2023-05-21T23:52:36.209Z,41.24
2023-05-21T23:55:07.175Z,41.61
2023-05-21T23:57:35.899Z,41.17
